sensor_id;sensor_type;location;lat;lon;timestamp;temperature;humidity
22532;DHT22;11432;46.924;7.114;2023-02-12T00:01:37;-0.50;1.00
22532;DHT22;11432;46.924;7.114;2023-02-12T00:04:03;-0.50;1.00
22532;DHT22;11432;46.924;7.114;2023-02-12T00:06:29;-0.50;1.00
22532;DHT22;11432;46.924;7.114;2023-02-12T00:08:55;-0.50;1.00
22532;DHT22;11432;46.924;7.114;2023-02-12T00:11:28;-0.60;1.00
22532;DHT22;11432;46.924;7.114;2023-02-12T00:13:55;-0.60;1.00
22532;DHT22;11432;46.924;7.114;2023-02-12T00:16:24;-0.60;1.00
22532;DHT22;11432;46.924;7.114;2023-02-12T00:18:55;-0.60;1.00
22532;DHT22;11432;46.924;7.114;2023-02-12T00:21:21;-0.60;1.00
22532;DHT22;11432;46.924;7.114;2023-02-12T00:23:47;-0.60;1.00
22532;DHT22;11432;46.924;7.114;2023-02-12T00:26:16;-0.70;1.00
22532;DHT22;11432;46.924;7.114;2023-02-12T00:28:42;-0.60;1.00
22532;DHT22;11432;46.924;7.114;2023-02-12T00:31:27;-0.60;1.00
22532;DHT22;11432;46.924;7.114;2023-02-12T00:33:53;-0.60;1.00
22532;DHT22;11432;46.924;7.114;2023-02-12T00:36:21;-0.60;1.00
22532;DHT22;11432;46.924;7.114;2023-02-12T00:38:47;-0.70;1.00
22532;DHT22;11432;46.924;7.114;2023-02-12T00:41:15;-0.70;1.00
22532;DHT22;11432;46.924;7.114;2023-02-12T00:43:41;-0.70;1.00
22532;DHT22;11432;46.924;7.114;2023-02-12T00:46:06;-0.70;1.00
22532;DHT22;11432;46.924;7.114;2023-02-12T00:48:33;-0.80;1.00
22532;DHT22;11432;46.924;7.114;2023-02-12T00:50:59;-0.80;1.00
22532;DHT22;11432;46.924;7.114;2023-02-12T00:53:25;-0.80;1.00
22532;DHT22;11432;46.924;7.114;2023-02-12T00:55:50;-0.70;1.00
22532;DHT22;11432;46.924;7.114;2023-02-12T00:58:16;-0.70;1.00
22532;DHT22;11432;46.924;7.114;2023-02-12T01:00:42;-0.70;1.00
22532;DHT22;11432;46.924;7.114;2023-02-12T01:03:08;-0.80;1.00
22532;DHT22;11432;46.924;7.114;2023-02-12T01:05:34;-0.90;1.00
22532;DHT22;11432;46.924;7.114;2023-02-12T01:08:00;-0.90;1.00
22532;DHT22;11432;46.924;7.114;2023-02-12T01:10:26;-0.90;1.00
22532;DHT22;11432;46.924;7.114;2023-02-12T01:12:52;-0.90;1.00
22532;DHT22;11432;46.924;7.114;2023-02-12T01:15:17;-0.90;1.00
22532;DHT22;11432;46.924;7.114;2023-02-12T01:17:43;-0.90;1.00
22532;DHT22;11432;46.924;7.114;2023-02-12T01:20:12;-0.90;1.00
22532;DHT22;11432;46.924;7.114;2023-02-12T01:22:38;-0.90;1.00
22532;DHT22;11432;46.924;7.114;2023-02-12T01:25:04;-0.90;1.00
22532;DHT22;11432;46.924;7.114;2023-02-12T01:27:30;-0.90;1.00
22532;DHT22;11432;46.924;7.114;2023-02-12T01:29:56;-0.90;1.00
22532;DHT22;11432;46.924;7.114;2023-02-12T01:32:22;-1.00;1.00
22532;DHT22;11432;46.924;7.114;2023-02-12T01:34:48;-1.00;1.00
22532;DHT22;11432;46.924;7.114;2023-02-12T01:37:14;-1.10;1.00
22532;DHT22;11432;46.924;7.114;2023-02-12T01:39:40;-1.10;1.00
22532;DHT22;11432;46.924;7.114;2023-02-12T01:42:06;-1.10;1.00
22532;DHT22;11432;46.924;7.114;2023-02-12T01:44:33;-1.10;1.00
22532;DHT22;11432;46.924;7.114;2023-02-12T01:47:03;-1.20;1.00
22532;DHT22;11432;46.924;7.114;2023-02-12T01:49:31;-1.20;1.00
22532;DHT22;11432;46.924;7.114;2023-02-12T01:52:02;-1.20;1.00
22532;DHT22;11432;46.924;7.114;2023-02-12T01:54:29;-1.20;1.00
22532;DHT22;11432;46.924;7.114;2023-02-12T01:56:56;-1.30;1.00
22532;DHT22;11432;46.924;7.114;2023-02-12T01:59:23;-1.30;6.60
22532;DHT22;11432;46.924;7.114;2023-02-12T02:01:48;-1.20;17.00
22532;DHT22;11432;46.924;7.114;2023-02-12T02:04:20;-1.20;16.70
22532;DHT22;11432;46.924;7.114;2023-02-12T02:06:57;-1.20;1.00
22532;DHT22;11432;46.924;7.114;2023-02-12T02:09:23;-1.20;16.50
22532;DHT22;11432;46.924;7.114;2023-02-12T02:11:49;-1.30;7.90
22532;DHT22;11432;46.924;7.114;2023-02-12T02:14:34;-1.20;17.20
22532;DHT22;11432;46.924;7.114;2023-02-12T02:31:19;-1.30;18.30
22532;DHT22;11432;46.924;7.114;2023-02-12T02:34:08;-1.30;36.40
22532;DHT22;11432;46.924;7.114;2023-02-12T02:36:46;-1.30;25.50
22532;DHT22;11432;46.924;7.114;2023-02-12T02:39:35;-1.40;22.10
22532;DHT22;11432;46.924;7.114;2023-02-12T02:42:15;-1.30;40.10
22532;DHT22;11432;46.924;7.114;2023-02-12T02:47:37;-1.30;27.10
22532;DHT22;11432;46.924;7.114;2023-02-12T02:50:11;-1.30;38.00
22532;DHT22;11432;46.924;7.114;2023-02-12T02:53:01;-1.30;49.50
22532;DHT22;11432;46.924;7.114;2023-02-12T02:55:32;-1.30;97.90
22532;DHT22;11432;46.924;7.114;2023-02-12T02:58:03;-1.30;99.90
22532;DHT22;11432;46.924;7.114;2023-02-12T03:00:35;-1.40;99.90
22532;DHT22;11432;46.924;7.114;2023-02-12T03:03:10;-1.40;99.90
22532;DHT22;11432;46.924;7.114;2023-02-12T03:05:42;-1.40;96.90
22532;DHT22;11432;46.924;7.114;2023-02-12T03:08:21;-1.50;95.10
22532;DHT22;11432;46.924;7.114;2023-02-12T03:10:54;-1.50;99.90
22532;DHT22;11432;46.924;7.114;2023-02-12T03:13:32;-1.40;95.00
22532;DHT22;11432;46.924;7.114;2023-02-12T03:16:20;-1.40;86.70
22532;DHT22;11432;46.924;7.114;2023-02-12T03:18:57;-1.40;81.20
22532;DHT22;11432;46.924;7.114;2023-02-12T03:21:39;-1.50;70.10
22532;DHT22;11432;46.924;7.114;2023-02-12T03:24:28;-1.50;71.20
22532;DHT22;11432;46.924;7.114;2023-02-12T03:29:33;-1.60;99.10
22532;DHT22;11432;46.924;7.114;2023-02-12T03:32:19;-1.60;99.90
22532;DHT22;11432;46.924;7.114;2023-02-12T03:37:34;-1.70;99.90
22532;DHT22;11432;46.924;7.114;2023-02-12T03:43:14;-1.70;93.80
22532;DHT22;11432;46.924;7.114;2023-02-12T03:46:04;-1.70;98.50
22532;DHT22;11432;46.924;7.114;2023-02-12T03:48:33;-1.80;99.90
22532;DHT22;11432;46.924;7.114;2023-02-12T03:51:18;-1.80;99.90
22532;DHT22;11432;46.924;7.114;2023-02-12T03:53:46;-1.90;99.90
22532;DHT22;11432;46.924;7.114;2023-02-12T03:56:28;-1.80;99.90
22532;DHT22;11432;46.924;7.114;2023-02-12T03:58:57;-1.80;99.90
22532;DHT22;11432;46.924;7.114;2023-02-12T04:01:23;-1.80;99.90
22532;DHT22;11432;46.924;7.114;2023-02-12T04:03:48;-1.80;99.90
22532;DHT22;11432;46.924;7.114;2023-02-12T04:06:22;-1.80;99.90
22532;DHT22;11432;46.924;7.114;2023-02-12T04:08:50;-1.90;99.90
22532;DHT22;11432;46.924;7.114;2023-02-12T04:11:27;-1.80;99.90
22532;DHT22;11432;46.924;7.114;2023-02-12T04:14:17;-1.90;99.90
22532;DHT22;11432;46.924;7.114;2023-02-12T04:19:20;-1.90;99.90
22532;DHT22;11432;46.924;7.114;2023-02-12T04:24:48;-1.90;99.90
22532;DHT22;11432;46.924;7.114;2023-02-12T04:27:25;-1.90;99.90
22532;DHT22;11432;46.924;7.114;2023-02-12T04:30:23;-2.00;99.90
22532;DHT22;11432;46.924;7.114;2023-02-12T04:32:56;-1.90;99.90
22532;DHT22;11432;46.924;7.114;2023-02-12T04:40:49;-2.00;99.90
22532;DHT22;11432;46.924;7.114;2023-02-12T04:43:26;-2.10;99.90
22532;DHT22;11432;46.924;7.114;2023-02-12T04:45:52;-2.20;99.90
22532;DHT22;11432;46.924;7.114;2023-02-12T04:48:17;-2.10;99.90
22532;DHT22;11432;46.924;7.114;2023-02-12T04:50:43;-2.00;99.90
22532;DHT22;11432;46.924;7.114;2023-02-12T04:53:10;-2.00;99.90
22532;DHT22;11432;46.924;7.114;2023-02-12T04:55:36;-2.00;99.90
22532;DHT22;11432;46.924;7.114;2023-02-12T04:58:02;-2.00;99.90
22532;DHT22;11432;46.924;7.114;2023-02-12T05:00:28;-2.00;99.90
22532;DHT22;11432;46.924;7.114;2023-02-12T05:02:53;-2.10;99.90
22532;DHT22;11432;46.924;7.114;2023-02-12T05:05:19;-2.10;99.90
22532;DHT22;11432;46.924;7.114;2023-02-12T05:07:45;-2.10;99.90
22532;DHT22;11432;46.924;7.114;2023-02-12T05:10:10;-2.10;99.90
22532;DHT22;11432;46.924;7.114;2023-02-12T05:12:36;-2.10;99.90
22532;DHT22;11432;46.924;7.114;2023-02-12T05:15:02;-2.10;99.90
22532;DHT22;11432;46.924;7.114;2023-02-12T05:17:27;-2.10;99.90
22532;DHT22;11432;46.924;7.114;2023-02-12T05:19:53;-2.10;99.90
22532;DHT22;11432;46.924;7.114;2023-02-12T05:22:18;-2.10;99.90
22532;DHT22;11432;46.924;7.114;2023-02-12T05:24:44;-2.20;99.90
22532;DHT22;11432;46.924;7.114;2023-02-12T05:27:10;-2.20;99.90
22532;DHT22;11432;46.924;7.114;2023-02-12T05:29:36;-2.20;99.90
22532;DHT22;11432;46.924;7.114;2023-02-12T05:32:01;-2.20;99.90
22532;DHT22;11432;46.924;7.114;2023-02-12T05:34:27;-2.30;99.90
22532;DHT22;11432;46.924;7.114;2023-02-12T05:36:53;-2.20;99.90
22532;DHT22;11432;46.924;7.114;2023-02-12T05:39:18;-2.20;99.90
22532;DHT22;11432;46.924;7.114;2023-02-12T05:41:44;-2.30;99.90
22532;DHT22;11432;46.924;7.114;2023-02-12T05:44:10;-2.30;99.90
22532;DHT22;11432;46.924;7.114;2023-02-12T05:46:40;-2.30;99.90
22532;DHT22;11432;46.924;7.114;2023-02-12T05:49:06;-2.30;99.90
22532;DHT22;11432;46.924;7.114;2023-02-12T05:51:32;-2.40;99.90
22532;DHT22;11432;46.924;7.114;2023-02-12T05:54:00;-2.30;99.90
22532;DHT22;11432;46.924;7.114;2023-02-12T05:56:30;-2.30;99.90
22532;DHT22;11432;46.924;7.114;2023-02-12T05:59:02;-2.30;99.90
22532;DHT22;11432;46.924;7.114;2023-02-12T06:01:29;-2.30;99.90
22532;DHT22;11432;46.924;7.114;2023-02-12T06:03:55;-2.40;99.90
22532;DHT22;11432;46.924;7.114;2023-02-12T06:06:24;-2.40;99.90
22532;DHT22;11432;46.924;7.114;2023-02-12T06:08:50;-2.40;99.90
22532;DHT22;11432;46.924;7.114;2023-02-12T06:11:16;-2.40;99.90
22532;DHT22;11432;46.924;7.114;2023-02-12T06:13:43;-2.30;99.90
22532;DHT22;11432;46.924;7.114;2023-02-12T06:18:43;-2.40;99.90
22532;DHT22;11432;46.924;7.114;2023-02-12T06:21:09;-2.40;99.90
22532;DHT22;11432;46.924;7.114;2023-02-12T06:23:34;-2.40;99.90
22532;DHT22;11432;46.924;7.114;2023-02-12T06:26:00;-2.40;99.90
22532;DHT22;11432;46.924;7.114;2023-02-12T06:28:26;-2.40;99.90
22532;DHT22;11432;46.924;7.114;2023-02-12T06:30:51;-2.40;99.90
22532;DHT22;11432;46.924;7.114;2023-02-12T06:33:17;-2.40;99.90
22532;DHT22;11432;46.924;7.114;2023-02-12T06:35:42;-2.40;99.90
22532;DHT22;11432;46.924;7.114;2023-02-12T06:38:09;-2.40;99.90
22532;DHT22;11432;46.924;7.114;2023-02-12T06:40:34;-2.50;99.90
22532;DHT22;11432;46.924;7.114;2023-02-12T06:43:00;-2.50;99.90
22532;DHT22;11432;46.924;7.114;2023-02-12T06:45:25;-2.50;99.90
22532;DHT22;11432;46.924;7.114;2023-02-12T06:47:51;-2.50;99.90
22532;DHT22;11432;46.924;7.114;2023-02-12T06:50:17;-2.60;99.90
22532;DHT22;11432;46.924;7.114;2023-02-12T06:52:43;-2.60;99.90
22532;DHT22;11432;46.924;7.114;2023-02-12T06:55:08;-2.60;99.90
22532;DHT22;11432;46.924;7.114;2023-02-12T06:57:34;-2.60;99.90
22532;DHT22;11432;46.924;7.114;2023-02-12T06:59:59;-2.60;99.90
22532;DHT22;11432;46.924;7.114;2023-02-12T07:02:25;-2.60;99.90
22532;DHT22;11432;46.924;7.114;2023-02-12T07:04:51;-2.50;99.90
22532;DHT22;11432;46.924;7.114;2023-02-12T07:07:16;-2.50;99.90
22532;DHT22;11432;46.924;7.114;2023-02-12T07:09:42;-2.50;99.90
22532;DHT22;11432;46.924;7.114;2023-02-12T07:12:07;-2.50;99.90
22532;DHT22;11432;46.924;7.114;2023-02-12T07:14:33;-2.50;99.90
22532;DHT22;11432;46.924;7.114;2023-02-12T07:16:59;-2.50;99.90
22532;DHT22;11432;46.924;7.114;2023-02-12T07:19:28;-2.40;99.90
22532;DHT22;11432;46.924;7.114;2023-02-12T07:21:54;-2.30;99.90
22532;DHT22;11432;46.924;7.114;2023-02-12T07:24:19;-2.20;99.90
22532;DHT22;11432;46.924;7.114;2023-02-12T07:26:45;-2.20;99.90
22532;DHT22;11432;46.924;7.114;2023-02-12T07:29:11;-2.10;99.90
22532;DHT22;11432;46.924;7.114;2023-02-12T07:31:37;-2.10;99.90
22532;DHT22;11432;46.924;7.114;2023-02-12T07:34:03;-2.00;99.90
22532;DHT22;11432;46.924;7.114;2023-02-12T07:36:31;-1.90;99.90
22532;DHT22;11432;46.924;7.114;2023-02-12T07:38:57;-1.80;99.90
22532;DHT22;11432;46.924;7.114;2023-02-12T07:41:29;-1.70;99.90
22532;DHT22;11432;46.924;7.114;2023-02-12T07:44:15;-1.70;99.90
22532;DHT22;11432;46.924;7.114;2023-02-12T07:46:43;-1.60;99.90
22532;DHT22;11432;46.924;7.114;2023-02-12T07:49:18;-1.50;99.90
22532;DHT22;11432;46.924;7.114;2023-02-12T07:51:44;-1.30;99.90
22532;DHT22;11432;46.924;7.114;2023-02-12T07:54:11;-1.30;99.90
22532;DHT22;11432;46.924;7.114;2023-02-12T07:56:37;-1.10;99.90
22532;DHT22;11432;46.924;7.114;2023-02-12T07:59:10;-1.00;99.90
22532;DHT22;11432;46.924;7.114;2023-02-12T08:01:39;-0.90;99.90
22532;DHT22;11432;46.924;7.114;2023-02-12T08:04:10;-0.80;99.90
22532;DHT22;11432;46.924;7.114;2023-02-12T08:06:39;-0.70;99.90
22532;DHT22;11432;46.924;7.114;2023-02-12T08:09:08;-0.60;99.90
22532;DHT22;11432;46.924;7.114;2023-02-12T08:11:35;-0.40;95.20
22532;DHT22;11432;46.924;7.114;2023-02-12T08:14:02;-0.30;97.00
22532;DHT22;11432;46.924;7.114;2023-02-12T08:16:28;-0.30;99.90
22532;DHT22;11432;46.924;7.114;2023-02-12T08:18:55;-0.20;99.90
22532;DHT22;11432;46.924;7.114;2023-02-12T08:21:26;0.00;99.90
22532;DHT22;11432;46.924;7.114;2023-02-12T08:23:56;0.20;50.30
22532;DHT22;11432;46.924;7.114;2023-02-12T08:26:33;0.30;23.90
22532;DHT22;11432;46.924;7.114;2023-02-12T08:28:59;0.50;1.00
22532;DHT22;11432;46.924;7.114;2023-02-12T08:31:29;0.70;1.00
22532;DHT22;11432;46.924;7.114;2023-02-12T08:33:56;0.90;1.00
22532;DHT22;11432;46.924;7.114;2023-02-12T08:36:27;1.00;1.00
22532;DHT22;11432;46.924;7.114;2023-02-12T08:38:56;1.10;1.00
22532;DHT22;11432;46.924;7.114;2023-02-12T08:41:23;1.10;1.00
22532;DHT22;11432;46.924;7.114;2023-02-12T08:43:52;1.10;1.00
22532;DHT22;11432;46.924;7.114;2023-02-12T08:46:23;1.20;1.00
22532;DHT22;11432;46.924;7.114;2023-02-12T08:48:55;1.30;1.00
22532;DHT22;11432;46.924;7.114;2023-02-12T08:51:24;1.40;1.00
22532;DHT22;11432;46.924;7.114;2023-02-12T08:53:55;1.40;1.00
22532;DHT22;11432;46.924;7.114;2023-02-12T08:56:22;1.30;1.00
22532;DHT22;11432;46.924;7.114;2023-02-12T08:58:49;1.30;1.00
22532;DHT22;11432;46.924;7.114;2023-02-12T09:01:21;1.40;1.00
22532;DHT22;11432;46.924;7.114;2023-02-12T09:03:47;1.50;1.00
22532;DHT22;11432;46.924;7.114;2023-02-12T09:06:14;1.50;1.00
22532;DHT22;11432;46.924;7.114;2023-02-12T09:08:41;1.40;1.00
22532;DHT22;11432;46.924;7.114;2023-02-12T09:11:10;1.30;1.00
22532;DHT22;11432;46.924;7.114;2023-02-12T09:13:37;1.20;1.00
22532;DHT22;11432;46.924;7.114;2023-02-12T09:16:05;1.30;1.00
22532;DHT22;11432;46.924;7.114;2023-02-12T09:18:31;1.30;1.00
22532;DHT22;11432;46.924;7.114;2023-02-12T09:21:02;1.40;1.00
22532;DHT22;11432;46.924;7.114;2023-02-12T09:23:28;1.30;1.00
22532;DHT22;11432;46.924;7.114;2023-02-12T09:25:54;1.30;1.00
22532;DHT22;11432;46.924;7.114;2023-02-12T09:28:19;1.20;1.00
22532;DHT22;11432;46.924;7.114;2023-02-12T09:30:45;1.30;1.00
22532;DHT22;11432;46.924;7.114;2023-02-12T09:33:11;1.30;1.00
22532;DHT22;11432;46.924;7.114;2023-02-12T09:35:37;1.30;1.00
22532;DHT22;11432;46.924;7.114;2023-02-12T09:38:04;1.40;1.00
22532;DHT22;11432;46.924;7.114;2023-02-12T09:43:19;1.50;1.00
22532;DHT22;11432;46.924;7.114;2023-02-12T09:46:13;1.60;1.00
22532;DHT22;11432;46.924;7.114;2023-02-12T09:51:35;1.80;1.00
22532;DHT22;11432;46.924;7.114;2023-02-12T09:54:06;2.00;1.00
22532;DHT22;11432;46.924;7.114;2023-02-12T09:56:36;2.20;1.00
22532;DHT22;11432;46.924;7.114;2023-02-12T09:59:05;2.40;1.00
22532;DHT22;11432;46.924;7.114;2023-02-12T10:01:32;2.50;1.00
22532;DHT22;11432;46.924;7.114;2023-02-12T10:03:58;2.70;1.00
22532;DHT22;11432;46.924;7.114;2023-02-12T10:06:26;2.50;1.00
22532;DHT22;11432;46.924;7.114;2023-02-12T10:09:06;2.60;1.00
22532;DHT22;11432;46.924;7.114;2023-02-12T10:14:28;2.80;1.00
22532;DHT22;11432;46.924;7.114;2023-02-12T10:20:04;3.00;99.90
22532;DHT22;11432;46.924;7.114;2023-02-12T10:25:48;3.40;99.90
22532;DHT22;11432;46.924;7.114;2023-02-12T10:28:18;3.50;99.90
22532;DHT22;11432;46.924;7.114;2023-02-12T10:33:48;3.90;99.90
22532;DHT22;11432;46.924;7.114;2023-02-12T10:39:23;4.50;99.90
22532;DHT22;11432;46.924;7.114;2023-02-12T10:42:10;4.80;99.90
22532;DHT22;11432;46.924;7.114;2023-02-12T10:44:37;5.10;99.90
22532;DHT22;11432;46.924;7.114;2023-02-12T10:47:02;5.50;99.90
22532;DHT22;11432;46.924;7.114;2023-02-12T10:57:20;7.90;1.00
22532;DHT22;11432;46.924;7.114;2023-02-12T10:59:48;8.30;1.00
22532;DHT22;11432;46.924;7.114;2023-02-12T11:02:27;9.00;1.00
22532;DHT22;11432;46.924;7.114;2023-02-12T11:04:53;9.70;1.00
22532;DHT22;11432;46.924;7.114;2023-02-12T11:07:20;9.90;1.00
22532;DHT22;11432;46.924;7.114;2023-02-12T11:09:48;10.00;1.00
22532;DHT22;11432;46.924;7.114;2023-02-12T11:14:52;10.20;1.00
22532;DHT22;11432;46.924;7.114;2023-02-12T11:17:26;9.90;1.00
22532;DHT22;11432;46.924;7.114;2023-02-12T11:22:59;10.40;1.00
22532;DHT22;11432;46.924;7.114;2023-02-12T11:25:31;10.80;1.00
22532;DHT22;11432;46.924;7.114;2023-02-12T11:28:16;11.00;1.00
22532;DHT22;11432;46.924;7.114;2023-02-12T11:30:58;11.30;1.00
22532;DHT22;11432;46.924;7.114;2023-02-12T11:33:35;11.30;1.00
22532;DHT22;11432;46.924;7.114;2023-02-12T11:36:04;11.40;1.00
22532;DHT22;11432;46.924;7.114;2023-02-12T11:38:37;11.60;1.00
22532;DHT22;11432;46.924;7.114;2023-02-12T11:43:53;12.40;1.00
22532;DHT22;11432;46.924;7.114;2023-02-12T11:46:24;11.50;1.00
22532;DHT22;11432;46.924;7.114;2023-02-12T11:48:52;11.00;1.00
22532;DHT22;11432;46.924;7.114;2023-02-12T11:51:21;11.60;1.00
22532;DHT22;11432;46.924;7.114;2023-02-12T11:53:51;12.00;1.00
22532;DHT22;11432;46.924;7.114;2023-02-12T11:56:18;12.40;1.00
22532;DHT22;11432;46.924;7.114;2023-02-12T11:58:45;12.40;1.00
22532;DHT22;11432;46.924;7.114;2023-02-12T12:01:18;12.60;1.00
22532;DHT22;11432;46.924;7.114;2023-02-12T12:06:24;12.50;1.00
22532;DHT22;11432;46.924;7.114;2023-02-12T12:14:43;12.30;1.00
22532;DHT22;11432;46.924;7.114;2023-02-12T12:17:53;12.60;1.00
22532;DHT22;11432;46.924;7.114;2023-02-12T12:20:53;12.50;1.00
22532;DHT22;11432;46.924;7.114;2023-02-12T12:23:59;13.10;1.00
22532;DHT22;11432;46.924;7.114;2023-02-12T12:26:27;13.30;1.00
22532;DHT22;11432;46.924;7.114;2023-02-12T12:29:16;13.60;1.00
22532;DHT22;11432;46.924;7.114;2023-02-12T12:31:45;13.60;1.00
22532;DHT22;11432;46.924;7.114;2023-02-12T12:34:16;13.80;1.00
22532;DHT22;11432;46.924;7.114;2023-02-12T12:37:06;13.50;1.00
22532;DHT22;11432;46.924;7.114;2023-02-12T12:44:56;12.70;1.00
22532;DHT22;11432;46.924;7.114;2023-02-12T12:47:48;13.10;1.00
22532;DHT22;11432;46.924;7.114;2023-02-12T12:50:34;13.10;1.00
22532;DHT22;11432;46.924;7.114;2023-02-12T13:11:45;13.50;99.90
22532;DHT22;11432;46.924;7.114;2023-02-12T13:14:34;13.20;99.90
22532;DHT22;11432;46.924;7.114;2023-02-12T13:17:04;13.50;99.90
22532;DHT22;11432;46.924;7.114;2023-02-12T13:22:58;14.00;99.90
22532;DHT22;11432;46.924;7.114;2023-02-12T13:27:42;14.10;99.90
22532;DHT22;11432;46.924;7.114;2023-02-12T13:30:36;13.60;99.90
22532;DHT22;11432;46.924;7.114;2023-02-12T13:35:39;14.40;99.90
22532;DHT22;11432;46.924;7.114;2023-02-12T13:38:07;14.30;99.90
22532;DHT22;11432;46.924;7.114;2023-02-12T13:40:34;13.90;99.90
22532;DHT22;11432;46.924;7.114;2023-02-12T13:49:04;13.90;99.90
22532;DHT22;11432;46.924;7.114;2023-02-12T13:52:07;13.20;99.90
22532;DHT22;11432;46.924;7.114;2023-02-12T13:57:19;13.50;99.90
22532;DHT22;11432;46.924;7.114;2023-02-12T13:59:47;13.80;99.90
22532;DHT22;11432;46.924;7.114;2023-02-12T14:04:59;14.00;50.80
22532;DHT22;11432;46.924;7.114;2023-02-12T14:07:44;14.80;99.90
22532;DHT22;11432;46.924;7.114;2023-02-12T14:10:21;15.00;99.90
22532;DHT22;11432;46.924;7.114;2023-02-12T14:12:47;14.90;54.70
22532;DHT22;11432;46.924;7.114;2023-02-12T14:15:32;14.60;1.00
22532;DHT22;11432;46.924;7.114;2023-02-12T14:18:23;14.50;99.90
22532;DHT22;11432;46.924;7.114;2023-02-12T14:20:49;14.50;99.90
22532;DHT22;11432;46.924;7.114;2023-02-12T14:23:33;14.10;99.90
22532;DHT22;11432;46.924;7.114;2023-02-12T14:26:11;13.80;99.90
22532;DHT22;11432;46.924;7.114;2023-02-12T14:28:48;13.10;99.90
22532;DHT22;11432;46.924;7.114;2023-02-12T14:33:45;10.60;99.90
22532;DHT22;11432;46.924;7.114;2023-02-12T14:39:04;10.00;1.00
22532;DHT22;11432;46.924;7.114;2023-02-12T14:49:26;9.80;1.00
22532;DHT22;11432;46.924;7.114;2023-02-12T14:52:05;9.70;99.90
22532;DHT22;11432;46.924;7.114;2023-02-12T14:54:41;9.60;99.90
22532;DHT22;11432;46.924;7.114;2023-02-12T14:57:25;9.50;1.00
22532;DHT22;11432;46.924;7.114;2023-02-12T14:59:54;9.50;99.90
22532;DHT22;11432;46.924;7.114;2023-02-12T15:02:29;9.50;99.90
22532;DHT22;11432;46.924;7.114;2023-02-12T15:05:01;9.50;1.00
22532;DHT22;11432;46.924;7.114;2023-02-12T15:07:59;9.50;1.00
22532;DHT22;11432;46.924;7.114;2023-02-12T15:10:34;9.50;1.00
22532;DHT22;11432;46.924;7.114;2023-02-12T15:16:07;9.40;1.00
22532;DHT22;11432;46.924;7.114;2023-02-12T15:23:41;9.30;99.90
22532;DHT22;11432;46.924;7.114;2023-02-12T15:26:17;9.30;99.90
22532;DHT22;11432;46.924;7.114;2023-02-12T15:28:45;9.30;99.90
22532;DHT22;11432;46.924;7.114;2023-02-12T15:31:15;9.20;99.90
22532;DHT22;11432;46.924;7.114;2023-02-12T15:33:48;9.20;99.90
22532;DHT22;11432;46.924;7.114;2023-02-12T15:36:25;9.20;99.90
22532;DHT22;11432;46.924;7.114;2023-02-12T15:38:54;9.20;99.90
22532;DHT22;11432;46.924;7.114;2023-02-12T15:41:39;9.10;99.90
22532;DHT22;11432;46.924;7.114;2023-02-12T15:44:30;9.10;99.90
22532;DHT22;11432;46.924;7.114;2023-02-12T15:49:30;9.00;16.30
22532;DHT22;11432;46.924;7.114;2023-02-12T15:51:58;9.00;96.40
22532;DHT22;11432;46.924;7.114;2023-02-12T15:54:26;9.00;93.40
22532;DHT22;11432;46.924;7.114;2023-02-12T15:56:53;8.90;99.90
22532;DHT22;11432;46.924;7.114;2023-02-12T15:59:21;8.90;99.90
22532;DHT22;11432;46.924;7.114;2023-02-12T16:02:02;8.90;99.90
22532;DHT22;11432;46.924;7.114;2023-02-12T16:04:30;8.80;99.90
22532;DHT22;11432;46.924;7.114;2023-02-12T16:07:00;8.80;99.90
22532;DHT22;11432;46.924;7.114;2023-02-12T16:09:34;8.70;99.90
22532;DHT22;11432;46.924;7.114;2023-02-12T16:12:02;8.80;99.90
22532;DHT22;11432;46.924;7.114;2023-02-12T16:14:42;8.70;99.90
22532;DHT22;11432;46.924;7.114;2023-02-12T16:20:03;8.60;99.90
22532;DHT22;11432;46.924;7.114;2023-02-12T16:22:35;8.60;99.90
22532;DHT22;11432;46.924;7.114;2023-02-12T16:25:02;8.60;58.50
22532;DHT22;11432;46.924;7.114;2023-02-12T16:27:31;8.50;29.20
22532;DHT22;11432;46.924;7.114;2023-02-12T16:30:22;8.40;79.90
22532;DHT22;11432;46.924;7.114;2023-02-12T16:32:44;8.40;99.90
22532;DHT22;11432;46.924;7.114;2023-02-12T16:42:28;8.00;99.90
22532;DHT22;11432;46.924;7.114;2023-02-12T16:44:54;7.90;1.00
22532;DHT22;11432;46.924;7.114;2023-02-12T16:47:22;7.80;1.00
22532;DHT22;11432;46.924;7.114;2023-02-12T16:52:18;7.50;21.30
22532;DHT22;11432;46.924;7.114;2023-02-12T16:54:44;7.40;99.90
22532;DHT22;11432;46.924;7.114;2023-02-12T16:57:10;7.30;99.90
22532;DHT22;11432;46.924;7.114;2023-02-12T16:59:36;7.20;1.00
22532;DHT22;11432;46.924;7.114;2023-02-12T17:02:11;7.00;99.90
22532;DHT22;11432;46.924;7.114;2023-02-12T17:04:38;6.80;1.00
22532;DHT22;11432;46.924;7.114;2023-02-12T17:07:19;6.70;99.90
22532;DHT22;11432;46.924;7.114;2023-02-12T17:09:45;6.50;1.00
22532;DHT22;11432;46.924;7.114;2023-02-12T17:12:10;6.40;57.00
22532;DHT22;11432;46.924;7.114;2023-02-12T17:14:36;6.20;1.00
22532;DHT22;11432;46.924;7.114;2023-02-12T17:17:02;6.10;1.00
22532;DHT22;11432;46.924;7.114;2023-02-12T17:19:27;6.00;99.90
22532;DHT22;11432;46.924;7.114;2023-02-12T17:21:53;5.90;1.00
22532;DHT22;11432;46.924;7.114;2023-02-12T17:24:21;5.70;1.00
22532;DHT22;11432;46.924;7.114;2023-02-12T17:26:49;5.60;99.90
22532;DHT22;11432;46.924;7.114;2023-02-12T17:29:19;5.50;1.00
22532;DHT22;11432;46.924;7.114;2023-02-12T17:31:45;5.40;1.00
22532;DHT22;11432;46.924;7.114;2023-02-12T17:34:12;5.40;50.70
22532;DHT22;11432;46.924;7.114;2023-02-12T17:36:39;5.20;99.90
22532;DHT22;11432;46.924;7.114;2023-02-12T17:39:06;5.10;99.90
22532;DHT22;11432;46.924;7.114;2023-02-12T17:41:32;5.00;1.00
22532;DHT22;11432;46.924;7.114;2023-02-12T17:43:58;4.90;1.00
22532;DHT22;11432;46.924;7.114;2023-02-12T17:46:26;4.90;1.00
22532;DHT22;11432;46.924;7.114;2023-02-12T17:48:52;4.80;99.90
22532;DHT22;11432;46.924;7.114;2023-02-12T17:51:17;4.70;99.90
22532;DHT22;11432;46.924;7.114;2023-02-12T17:53:43;4.60;99.90
22532;DHT22;11432;46.924;7.114;2023-02-12T17:56:11;4.60;99.90
22532;DHT22;11432;46.924;7.114;2023-02-12T17:58:38;4.60;99.90
22532;DHT22;11432;46.924;7.114;2023-02-12T18:01:08;4.60;99.90
22532;DHT22;11432;46.924;7.114;2023-02-12T18:03:34;4.60;99.90
22532;DHT22;11432;46.924;7.114;2023-02-12T18:06:00;4.90;99.90
22532;DHT22;11432;46.924;7.114;2023-02-12T18:08:26;4.80;23.30
22532;DHT22;11432;46.924;7.114;2023-02-12T18:10:52;4.50;99.90
22532;DHT22;11432;46.924;7.114;2023-02-12T18:13:17;4.40;1.00
22532;DHT22;11432;46.924;7.114;2023-02-12T18:15:43;4.40;1.00
22532;DHT22;11432;46.924;7.114;2023-02-12T18:18:09;4.30;1.00
22532;DHT22;11432;46.924;7.114;2023-02-12T18:20:35;4.30;1.00
22532;DHT22;11432;46.924;7.114;2023-02-12T18:23:00;4.20;1.00
22532;DHT22;11432;46.924;7.114;2023-02-12T18:25:28;4.10;1.00
22532;DHT22;11432;46.924;7.114;2023-02-12T18:27:53;4.10;1.00
22532;DHT22;11432;46.924;7.114;2023-02-12T18:30:19;4.10;1.00
22532;DHT22;11432;46.924;7.114;2023-02-12T18:32:45;4.00;1.00
22532;DHT22;11432;46.924;7.114;2023-02-12T18:35:10;3.90;1.00
22532;DHT22;11432;46.924;7.114;2023-02-12T18:37:36;3.80;1.00
22532;DHT22;11432;46.924;7.114;2023-02-12T18:40:02;3.70;17.70
22532;DHT22;11432;46.924;7.114;2023-02-12T18:42:29;3.60;99.90
22532;DHT22;11432;46.924;7.114;2023-02-12T18:44:57;3.60;99.50
22532;DHT22;11432;46.924;7.114;2023-02-12T18:47:23;3.50;99.90